Etusivu
METAR-TAF:

METAR-TAF

Lentoasemat :

Kristiansund, Norja

Leveyspiiri: 63-07N, Pituuspiiri: 007-50E, korkeus merenpinnasta: 6 m

Tämänhetkinen sää

Tämä raportti tehtiin 25 minuuttia sitten, kello 00.50 UTC
Tuuli 5 kn idästä, vaihdellen idän/koillisen ja kaakon välillä
Lämpötila 13°C
Kosteus 82%
Ilmanpaine 1011 hPa
Näkyvyys 10 km tai enemmän

METAR: ENKB 280050Z AUTO 09005KT 060V140 9999 OVC120/// 13/10 Q1011 RMK WIND 745FT 14014KT

Aika: 03:15 (01:15 UTC)

Sääennuste

Tämä raportti tehtiin 11 tuntia ja 15 minuuttia sitten, kello 14.00 UTC
Ennuste voimassa 27. päivästä klo 15 UTC - 27. päivään klo 20 UTC
Tuuli 5 kn idästä
Näkyvyys 10 km tai enemmän
ei pilviä alle 1500 m:ssä eikä cumulonimbus-pilviä

TAF: ENKB 271400Z 2715/2720 08005KT CAVOK

Säähavainnot ja -ennusteet yli 4000 lentoasemalta (METAR- ja TAF-raportit).

Käytössä olevat sääasemat on merkitty karttaan keltaisilla ja punaisilla pisteillä.

Aseta hiiri pisteen päälle nähdäksesi sääaseman nimen.

Klikkaa sitten nähdäksesi säähavainnot ja -ennusteet.

Kartan vaihtaminen: klikkaa mustalla rastilla varustettuja vihreitä pisteitä, niin voit zoomata sisään; viivalla varustettua vihreää pistettä, niin voit zoomata ulos tai vihreitä nuolia, niin pääset viereisille kartoille.


METAR-TAF: